sensor_id;sensor_type;location;lat;lon;timestamp;P1;durP1;ratioP1;P2;durP2;ratioP2
21266;SDS011;10791;53.108;18.326;2023-12-20T00:02:33;7.87;;;4.57;;
21266;SDS011;10791;53.108;18.326;2023-12-20T00:07:36;8.77;;;4.47;;
21266;SDS011;10791;53.108;18.326;2023-12-20T00:12:39;5.47;;;3.33;;
21266;SDS011;10791;53.108;18.326;2023-12-20T00:17:43;8.00;;;4.47;;
21266;SDS011;10791;53.108;18.326;2023-12-20T00:22:47;6.37;;;2.93;;
21266;SDS011;10791;53.108;18.326;2023-12-20T00:27:50;8.77;;;3.77;;
21266;SDS011;10791;53.108;18.326;2023-12-20T00:32:53;6.57;;;3.63;;
21266;SDS011;10791;53.108;18.326;2023-12-20T00:37:56;5.27;;;3.60;;
21266;SDS011;10791;53.108;18.326;2023-12-20T00:43:00;4.67;;;3.00;;
21266;SDS011;10791;53.108;18.326;2023-12-20T00:48:04;5.57;;;3.17;;
21266;SDS011;10791;53.108;18.326;2023-12-20T00:53:07;4.17;;;2.67;;
21266;SDS011;10791;53.108;18.326;2023-12-20T00:58:10;5.97;;;3.27;;
21266;SDS011;10791;53.108;18.326;2023-12-20T01:03:13;4.30;;;2.77;;
21266;SDS011;10791;53.108;18.326;2023-12-20T01:08:18;4.93;;;3.27;;
21266;SDS011;10791;53.108;18.326;2023-12-20T01:13:21;5.00;;;3.03;;
21266;SDS011;10791;53.108;18.326;2023-12-20T01:18:24;5.97;;;3.03;;
21266;SDS011;10791;53.108;18.326;2023-12-20T01:23:27;5.27;;;3.00;;
21266;SDS011;10791;53.108;18.326;2023-12-20T01:28:30;5.73;;;2.83;;
21266;SDS011;10791;53.108;18.326;2023-12-20T01:33:34;4.97;;;3.00;;
21266;SDS011;10791;53.108;18.326;2023-12-20T01:38:37;3.90;;;2.43;;
21266;SDS011;10791;53.108;18.326;2023-12-20T01:43:40;3.93;;;2.30;;
21266;SDS011;10791;53.108;18.326;2023-12-20T01:48:52;4.10;;;2.50;;
21266;SDS011;10791;53.108;18.326;2023-12-20T01:53:56;5.73;;;3.33;;
21266;SDS011;10791;53.108;18.326;2023-12-20T01:59:01;4.57;;;2.33;;
21266;SDS011;10791;53.108;18.326;2023-12-20T02:04:06;3.90;;;2.40;;
21266;SDS011;10791;53.108;18.326;2023-12-20T02:09:10;3.80;;;2.40;;
21266;SDS011;10791;53.108;18.326;2023-12-20T02:14:13;7.53;;;2.40;;
21266;SDS011;10791;53.108;18.326;2023-12-20T02:19:16;3.53;;;2.10;;
21266;SDS011;10791;53.108;18.326;2023-12-20T02:24:22;5.13;;;3.00;;
21266;SDS011;10791;53.108;18.326;2023-12-20T02:29:25;4.43;;;2.67;;
21266;SDS011;10791;53.108;18.326;2023-12-20T02:34:29;4.60;;;3.00;;
21266;SDS011;10791;53.108;18.326;2023-12-20T02:39:33;3.00;;;1.87;;
21266;SDS011;10791;53.108;18.326;2023-12-20T02:44:36;4.70;;;2.37;;
21266;SDS011;10791;53.108;18.326;2023-12-20T02:49:39;4.80;;;2.60;;
21266;SDS011;10791;53.108;18.326;2023-12-20T02:54:42;3.90;;;2.37;;
21266;SDS011;10791;53.108;18.326;2023-12-20T02:59:45;3.57;;;1.87;;
21266;SDS011;10791;53.108;18.326;2023-12-20T03:04:49;4.27;;;2.50;;
21266;SDS011;10791;53.108;18.326;2023-12-20T03:09:52;3.63;;;2.70;;
21266;SDS011;10791;53.108;18.326;2023-12-20T03:15:15;4.23;;;2.60;;
21266;SDS011;10791;53.108;18.326;2023-12-20T03:20:18;5.00;;;2.50;;
21266;SDS011;10791;53.108;18.326;2023-12-20T03:25:21;3.90;;;1.93;;
21266;SDS011;10791;53.108;18.326;2023-12-20T03:30:25;4.87;;;2.37;;
21266;SDS011;10791;53.108;18.326;2023-12-20T03:35:28;3.83;;;2.73;;
21266;SDS011;10791;53.108;18.326;2023-12-20T03:40:31;3.80;;;2.30;;
21266;SDS011;10791;53.108;18.326;2023-12-20T03:45:34;3.70;;;2.23;;
21266;SDS011;10791;53.108;18.326;2023-12-20T03:50:38;4.90;;;2.83;;
21266;SDS011;10791;53.108;18.326;2023-12-20T03:55:42;3.87;;;2.43;;
21266;SDS011;10791;53.108;18.326;2023-12-20T04:00:45;4.23;;;2.40;;
21266;SDS011;10791;53.108;18.326;2023-12-20T04:05:48;8.80;;;2.93;;
21266;SDS011;10791;53.108;18.326;2023-12-20T04:10:52;5.40;;;2.73;;
21266;SDS011;10791;53.108;18.326;2023-12-20T04:15:55;4.17;;;2.73;;
21266;SDS011;10791;53.108;18.326;2023-12-20T04:20:59;3.87;;;2.50;;
21266;SDS011;10791;53.108;18.326;2023-12-20T04:26:02;4.20;;;2.30;;
21266;SDS011;10791;53.108;18.326;2023-12-20T04:31:05;11.47;;;2.27;;
21266;SDS011;10791;53.108;18.326;2023-12-20T04:36:09;3.53;;;2.20;;
21266;SDS011;10791;53.108;18.326;2023-12-20T04:41:12;4.37;;;2.47;;
21266;SDS011;10791;53.108;18.326;2023-12-20T04:46:18;2.33;;;1.43;;
21266;SDS011;10791;53.108;18.326;2023-12-20T04:51:21;4.80;;;2.20;;
21266;SDS011;10791;53.108;18.326;2023-12-20T04:56:25;3.27;;;1.80;;
21266;SDS011;10791;53.108;18.326;2023-12-20T05:01:28;3.83;;;2.13;;
21266;SDS011;10791;53.108;18.326;2023-12-20T05:06:31;2.90;;;1.80;;
21266;SDS011;10791;53.108;18.326;2023-12-20T05:11:34;3.53;;;1.73;;
21266;SDS011;10791;53.108;18.326;2023-12-20T05:16:38;2.67;;;1.57;;
21266;SDS011;10791;53.108;18.326;2023-12-20T05:21:41;4.17;;;2.17;;
21266;SDS011;10791;53.108;18.326;2023-12-20T05:26:44;3.57;;;1.70;;
21266;SDS011;10791;53.108;18.326;2023-12-20T05:31:50;3.03;;;1.33;;
21266;SDS011;10791;53.108;18.326;2023-12-20T05:36:54;2.47;;;1.50;;
21266;SDS011;10791;53.108;18.326;2023-12-20T05:41:57;2.90;;;1.43;;
21266;SDS011;10791;53.108;18.326;2023-12-20T05:47:00;2.27;;;1.47;;
21266;SDS011;10791;53.108;18.326;2023-12-20T05:52:03;2.77;;;1.23;;
21266;SDS011;10791;53.108;18.326;2023-12-20T05:57:06;3.60;;;1.40;;
21266;SDS011;10791;53.108;18.326;2023-12-20T06:02:10;3.47;;;1.17;;
21266;SDS011;10791;53.108;18.326;2023-12-20T06:07:14;2.90;;;1.40;;
21266;SDS011;10791;53.108;18.326;2023-12-20T06:12:18;2.40;;;1.53;;
21266;SDS011;10791;53.108;18.326;2023-12-20T06:17:21;4.40;;;1.70;;
21266;SDS011;10791;53.108;18.326;2023-12-20T06:22:24;3.83;;;1.70;;
21266;SDS011;10791;53.108;18.326;2023-12-20T06:27:27;4.67;;;1.87;;
21266;SDS011;10791;53.108;18.326;2023-12-20T06:32:31;1.97;;;1.00;;
21266;SDS011;10791;53.108;18.326;2023-12-20T06:37:35;2.63;;;1.07;;
21266;SDS011;10791;53.108;18.326;2023-12-20T06:42:38;4.57;;;1.77;;
21266;SDS011;10791;53.108;18.326;2023-12-20T06:47:55;6.27;;;2.07;;
21266;SDS011;10791;53.108;18.326;2023-12-20T06:52:59;4.10;;;1.87;;
21266;SDS011;10791;53.108;18.326;2023-12-20T06:58:03;4.47;;;1.80;;
21266;SDS011;10791;53.108;18.326;2023-12-20T07:03:06;4.90;;;1.90;;
21266;SDS011;10791;53.108;18.326;2023-12-20T07:08:10;5.37;;;2.70;;
21266;SDS011;10791;53.108;18.326;2023-12-20T07:13:13;3.87;;;2.27;;
21266;SDS011;10791;53.108;18.326;2023-12-20T07:18:17;3.87;;;1.77;;
21266;SDS011;10791;53.108;18.326;2023-12-20T07:23:21;3.50;;;1.70;;
21266;SDS011;10791;53.108;18.326;2023-12-20T07:28:24;2.53;;;1.40;;
21266;SDS011;10791;53.108;18.326;2023-12-20T07:33:28;3.50;;;1.70;;
21266;SDS011;10791;53.108;18.326;2023-12-20T07:38:37;2.47;;;1.40;;
21266;SDS011;10791;53.108;18.326;2023-12-20T07:43:40;6.37;;;2.43;;
21266;SDS011;10791;53.108;18.326;2023-12-20T07:48:43;3.30;;;2.17;;
21266;SDS011;10791;53.108;18.326;2023-12-20T07:53:49;5.20;;;2.33;;
21266;SDS011;10791;53.108;18.326;2023-12-20T07:58:52;7.33;;;2.57;;
21266;SDS011;10791;53.108;18.326;2023-12-20T08:03:57;5.80;;;2.27;;
21266;SDS011;10791;53.108;18.326;2023-12-20T08:09:01;4.33;;;1.40;;
21266;SDS011;10791;53.108;18.326;2023-12-20T08:14:08;4.23;;;2.20;;
21266;SDS011;10791;53.108;18.326;2023-12-20T08:19:11;3.33;;;1.67;;
21266;SDS011;10791;53.108;18.326;2023-12-20T08:24:15;3.67;;;2.20;;
21266;SDS011;10791;53.108;18.326;2023-12-20T08:29:19;7.03;;;2.67;;
21266;SDS011;10791;53.108;18.326;2023-12-20T08:34:23;4.70;;;2.03;;
21266;SDS011;10791;53.108;18.326;2023-12-20T08:39:27;3.10;;;1.77;;
21266;SDS011;10791;53.108;18.326;2023-12-20T08:44:32;5.73;;;2.23;;
21266;SDS011;10791;53.108;18.326;2023-12-20T08:49:35;5.30;;;2.10;;
21266;SDS011;10791;53.108;18.326;2023-12-20T08:54:39;6.33;;;1.90;;
21266;SDS011;10791;53.108;18.326;2023-12-20T08:59:44;4.37;;;2.07;;
21266;SDS011;10791;53.108;18.326;2023-12-20T09:04:48;4.03;;;1.53;;
21266;SDS011;10791;53.108;18.326;2023-12-20T09:09:53;3.93;;;1.57;;
21266;SDS011;10791;53.108;18.326;2023-12-20T09:14:57;3.60;;;1.27;;
21266;SDS011;10791;53.108;18.326;2023-12-20T09:20:01;6.07;;;1.73;;
21266;SDS011;10791;53.108;18.326;2023-12-20T09:25:06;3.17;;;1.40;;
21266;SDS011;10791;53.108;18.326;2023-12-20T09:30:10;8.50;;;1.60;;
21266;SDS011;10791;53.108;18.326;2023-12-20T09:35:13;5.50;;;2.27;;
21266;SDS011;10791;53.108;18.326;2023-12-20T09:40:18;2.13;;;1.37;;
21266;SDS011;10791;53.108;18.326;2023-12-20T09:45:23;3.00;;;1.50;;
21266;SDS011;10791;53.108;18.326;2023-12-20T09:50:28;2.53;;;1.33;;
21266;SDS011;10791;53.108;18.326;2023-12-20T09:55:35;3.10;;;1.40;;
21266;SDS011;10791;53.108;18.326;2023-12-20T10:00:39;5.30;;;2.00;;
21266;SDS011;10791;53.108;18.326;2023-12-20T10:05:43;3.57;;;1.33;;
21266;SDS011;10791;53.108;18.326;2023-12-20T10:10:48;2.97;;;2.10;;
21266;SDS011;10791;53.108;18.326;2023-12-20T10:15:52;3.23;;;1.43;;
21266;SDS011;10791;53.108;18.326;2023-12-20T10:20:58;2.87;;;1.30;;
21266;SDS011;10791;53.108;18.326;2023-12-20T10:26:03;10.43;;;1.90;;
21266;SDS011;10791;53.108;18.326;2023-12-20T10:31:06;3.83;;;2.07;;
21266;SDS011;10791;53.108;18.326;2023-12-20T10:36:10;2.47;;;1.67;;
21266;SDS011;10791;53.108;18.326;2023-12-20T10:41:16;7.47;;;2.17;;
21266;SDS011;10791;53.108;18.326;2023-12-20T10:46:26;4.83;;;1.70;;
21266;SDS011;10791;53.108;18.326;2023-12-20T10:51:30;3.50;;;1.67;;
21266;SDS011;10791;53.108;18.326;2023-12-20T10:56:36;3.40;;;1.57;;
21266;SDS011;10791;53.108;18.326;2023-12-20T11:01:41;4.00;;;1.70;;
21266;SDS011;10791;53.108;18.326;2023-12-20T11:06:51;2.40;;;1.23;;
21266;SDS011;10791;53.108;18.326;2023-12-20T11:17:31;3.33;;;1.70;;
21266;SDS011;10791;53.108;18.326;2023-12-20T11:22:35;5.43;;;1.80;;
21266;SDS011;10791;53.108;18.326;2023-12-20T11:27:43;4.67;;;1.63;;
21266;SDS011;10791;53.108;18.326;2023-12-20T11:32:50;5.07;;;1.83;;
21266;SDS011;10791;53.108;18.326;2023-12-20T11:37:54;4.77;;;1.40;;
21266;SDS011;10791;53.108;18.326;2023-12-20T11:43:02;6.60;;;1.27;;
21266;SDS011;10791;53.108;18.326;2023-12-20T11:48:06;1.53;;;1.00;;
21266;SDS011;10791;53.108;18.326;2023-12-20T11:53:10;3.33;;;1.23;;
21266;SDS011;10791;53.108;18.326;2023-12-20T11:58:13;6.20;;;1.07;;
21266;SDS011;10791;53.108;18.326;2023-12-20T12:03:17;3.03;;;1.27;;
21266;SDS011;10791;53.108;18.326;2023-12-20T12:08:21;6.70;;;1.43;;
21266;SDS011;10791;53.108;18.326;2023-12-20T12:13:24;1.87;;;1.10;;
21266;SDS011;10791;53.108;18.326;2023-12-20T12:18:30;2.20;;;1.47;;
21266;SDS011;10791;53.108;18.326;2023-12-20T12:23:34;4.37;;;1.23;;
21266;SDS011;10791;53.108;18.326;2023-12-20T12:28:39;2.23;;;1.70;;
21266;SDS011;10791;53.108;18.326;2023-12-20T12:33:44;3.23;;;1.63;;
21266;SDS011;10791;53.108;18.326;2023-12-20T12:38:48;3.73;;;1.20;;
21266;SDS011;10791;53.108;18.326;2023-12-20T12:43:51;4.40;;;1.20;;
21266;SDS011;10791;53.108;18.326;2023-12-20T12:48:56;6.13;;;1.30;;
21266;SDS011;10791;53.108;18.326;2023-12-20T12:53:59;2.77;;;1.60;;
21266;SDS011;10791;53.108;18.326;2023-12-20T12:59:02;2.53;;;1.00;;
21266;SDS011;10791;53.108;18.326;2023-12-20T13:04:05;0.93;;;0.67;;
21266;SDS011;10791;53.108;18.326;2023-12-20T13:09:14;1.60;;;0.73;;
21266;SDS011;10791;53.108;18.326;2023-12-20T13:14:17;8.33;;;1.23;;
21266;SDS011;10791;53.108;18.326;2023-12-20T13:19:20;1.77;;;0.90;;
21266;SDS011;10791;53.108;18.326;2023-12-20T13:24:25;3.23;;;1.17;;
21266;SDS011;10791;53.108;18.326;2023-12-20T13:29:28;3.57;;;0.93;;
21266;SDS011;10791;53.108;18.326;2023-12-20T13:34:31;1.87;;;1.20;;
21266;SDS011;10791;53.108;18.326;2023-12-20T13:39:35;2.03;;;1.33;;
21266;SDS011;10791;53.108;18.326;2023-12-20T13:44:38;6.30;;;1.80;;
21266;SDS011;10791;53.108;18.326;2023-12-20T13:49:41;3.10;;;1.97;;
21266;SDS011;10791;53.108;18.326;2023-12-20T13:54:44;3.97;;;0.83;;
21266;SDS011;10791;53.108;18.326;2023-12-20T13:59:47;5.23;;;1.97;;
21266;SDS011;10791;53.108;18.326;2023-12-20T14:04:51;2.47;;;1.27;;
21266;SDS011;10791;53.108;18.326;2023-12-20T14:09:55;8.57;;;1.70;;
21266;SDS011;10791;53.108;18.326;2023-12-20T14:14:59;2.40;;;1.80;;
21266;SDS011;10791;53.108;18.326;2023-12-20T14:20:04;3.53;;;1.70;;
21266;SDS011;10791;53.108;18.326;2023-12-20T14:25:13;2.33;;;1.57;;
21266;SDS011;10791;53.108;18.326;2023-12-20T14:30:17;2.63;;;1.40;;
21266;SDS011;10791;53.108;18.326;2023-12-20T14:35:21;3.53;;;1.37;;
21266;SDS011;10791;53.108;18.326;2023-12-20T14:40:26;7.40;;;2.03;;
21266;SDS011;10791;53.108;18.326;2023-12-20T14:45:30;2.40;;;1.40;;
21266;SDS011;10791;53.108;18.326;2023-12-20T14:50:34;4.53;;;1.20;;
21266;SDS011;10791;53.108;18.326;2023-12-20T14:55:39;4.70;;;2.30;;
21266;SDS011;10791;53.108;18.326;2023-12-20T15:00:43;4.37;;;1.60;;
21266;SDS011;10791;53.108;18.326;2023-12-20T15:05:48;8.10;;;1.50;;
21266;SDS011;10791;53.108;18.326;2023-12-20T15:10:51;2.93;;;1.67;;
21266;SDS011;10791;53.108;18.326;2023-12-20T15:15:56;6.20;;;2.17;;
21266;SDS011;10791;53.108;18.326;2023-12-20T15:20:59;5.97;;;2.87;;
21266;SDS011;10791;53.108;18.326;2023-12-20T15:26:03;5.60;;;1.43;;
21266;SDS011;10791;53.108;18.326;2023-12-20T15:31:06;7.80;;;2.97;;
21266;SDS011;10791;53.108;18.326;2023-12-20T15:36:10;4.50;;;1.80;;
21266;SDS011;10791;53.108;18.326;2023-12-20T15:41:20;7.03;;;1.83;;
21266;SDS011;10791;53.108;18.326;2023-12-20T15:46:25;2.93;;;2.10;;
21266;SDS011;10791;53.108;18.326;2023-12-20T15:51:28;5.00;;;3.43;;
21266;SDS011;10791;53.108;18.326;2023-12-20T16:02:23;3.70;;;2.13;;
21266;SDS011;10791;53.108;18.326;2023-12-20T16:07:52;2.73;;;1.67;;
21266;SDS011;10791;53.108;18.326;2023-12-20T16:13:28;2.70;;;1.47;;
21266;SDS011;10791;53.108;18.326;2023-12-20T16:18:35;7.43;;;1.33;;
21266;SDS011;10791;53.108;18.326;2023-12-20T16:23:40;2.23;;;1.67;;
21266;SDS011;10791;53.108;18.326;2023-12-20T16:28:50;4.10;;;1.83;;
21266;SDS011;10791;53.108;18.326;2023-12-20T16:33:54;2.23;;;1.43;;
21266;SDS011;10791;53.108;18.326;2023-12-20T16:38:58;4.13;;;1.23;;
21266;SDS011;10791;53.108;18.326;2023-12-20T16:44:04;5.17;;;1.83;;
21266;SDS011;10791;53.108;18.326;2023-12-20T16:49:11;3.53;;;1.40;;
21266;SDS011;10791;53.108;18.326;2023-12-20T16:54:17;2.73;;;1.60;;
21266;SDS011;10791;53.108;18.326;2023-12-20T16:59:21;3.10;;;1.40;;
21266;SDS011;10791;53.108;18.326;2023-12-20T17:04:25;6.53;;;1.37;;
21266;SDS011;10791;53.108;18.326;2023-12-20T17:09:33;4.20;;;1.00;;
21266;SDS011;10791;53.108;18.326;2023-12-20T17:14:40;4.73;;;1.37;;
21266;SDS011;10791;53.108;18.326;2023-12-20T17:19:52;2.27;;;0.83;;
21266;SDS011;10791;53.108;18.326;2023-12-20T17:24:57;2.30;;;1.00;;
21266;SDS011;10791;53.108;18.326;2023-12-20T17:30:04;1.80;;;1.07;;
21266;SDS011;10791;53.108;18.326;2023-12-20T17:35:15;2.20;;;0.50;;
21266;SDS011;10791;53.108;18.326;2023-12-20T17:40:24;0.90;;;0.63;;
21266;SDS011;10791;53.108;18.326;2023-12-20T17:45:32;2.13;;;1.03;;
21266;SDS011;10791;53.108;18.326;2023-12-20T17:50:40;0.93;;;0.53;;
21266;SDS011;10791;53.108;18.326;2023-12-20T17:55:46;1.50;;;0.83;;
21266;SDS011;10791;53.108;18.326;2023-12-20T18:01:01;2.00;;;0.83;;
21266;SDS011;10791;53.108;18.326;2023-12-20T18:06:13;4.90;;;0.93;;
21266;SDS011;10791;53.108;18.326;2023-12-20T18:11:30;1.17;;;1.03;;
21266;SDS011;10791;53.108;18.326;2023-12-20T18:16:49;1.30;;;0.80;;
21266;SDS011;10791;53.108;18.326;2023-12-20T18:22:10;2.13;;;0.70;;
21266;SDS011;10791;53.108;18.326;2023-12-20T18:27:14;1.03;;;0.60;;
21266;SDS011;10791;53.108;18.326;2023-12-20T18:32:19;1.83;;;0.67;;
21266;SDS011;10791;53.108;18.326;2023-12-20T18:37:23;1.73;;;0.80;;
21266;SDS011;10791;53.108;18.326;2023-12-20T18:42:27;1.17;;;0.53;;
21266;SDS011;10791;53.108;18.326;2023-12-20T18:47:32;2.17;;;1.20;;
21266;SDS011;10791;53.108;18.326;2023-12-20T18:52:36;2.87;;;0.97;;
21266;SDS011;10791;53.108;18.326;2023-12-20T18:57:46;4.30;;;1.30;;
21266;SDS011;10791;53.108;18.326;2023-12-20T19:02:51;2.77;;;1.03;;
21266;SDS011;10791;53.108;18.326;2023-12-20T19:07:56;0.97;;;0.67;;
21266;SDS011;10791;53.108;18.326;2023-12-20T19:13:01;0.93;;;0.60;;
21266;SDS011;10791;53.108;18.326;2023-12-20T19:18:06;2.33;;;0.50;;
21266;SDS011;10791;53.108;18.326;2023-12-20T19:23:10;3.53;;;1.03;;
21266;SDS011;10791;53.108;18.326;2023-12-20T19:28:14;1.63;;;0.70;;
21266;SDS011;10791;53.108;18.326;2023-12-20T19:33:19;2.80;;;1.00;;
21266;SDS011;10791;53.108;18.326;2023-12-20T19:38:25;3.23;;;0.90;;
21266;SDS011;10791;53.108;18.326;2023-12-20T19:43:31;0.73;;;0.63;;
21266;SDS011;10791;53.108;18.326;2023-12-20T19:48:36;1.00;;;0.53;;
21266;SDS011;10791;53.108;18.326;2023-12-20T19:53:40;3.20;;;0.93;;
21266;SDS011;10791;53.108;18.326;2023-12-20T19:58:45;4.47;;;0.93;;
21266;SDS011;10791;53.108;18.326;2023-12-20T20:03:50;1.67;;;1.00;;
21266;SDS011;10791;53.108;18.326;2023-12-20T20:08:54;4.73;;;1.07;;
21266;SDS011;10791;53.108;18.326;2023-12-20T20:14:01;5.53;;;1.00;;
21266;SDS011;10791;53.108;18.326;2023-12-20T20:19:06;3.07;;;1.47;;
21266;SDS011;10791;53.108;18.326;2023-12-20T20:24:13;2.27;;;1.00;;
21266;SDS011;10791;53.108;18.326;2023-12-20T20:29:19;2.07;;;1.00;;
21266;SDS011;10791;53.108;18.326;2023-12-20T20:34:27;2.13;;;1.13;;
21266;SDS011;10791;53.108;18.326;2023-12-20T20:39:33;4.20;;;1.70;;
21266;SDS011;10791;53.108;18.326;2023-12-20T20:44:38;3.33;;;1.33;;
21266;SDS011;10791;53.108;18.326;2023-12-20T20:49:47;5.43;;;1.23;;
21266;SDS011;10791;53.108;18.326;2023-12-20T20:54:53;3.63;;;0.97;;
21266;SDS011;10791;53.108;18.326;2023-12-20T20:59:59;1.57;;;0.90;;
21266;SDS011;10791;53.108;18.326;2023-12-20T21:05:03;1.57;;;1.03;;
21266;SDS011;10791;53.108;18.326;2023-12-20T21:10:08;6.83;;;1.13;;
21266;SDS011;10791;53.108;18.326;2023-12-20T21:15:12;3.97;;;1.53;;
21266;SDS011;10791;53.108;18.326;2023-12-20T21:20:17;5.70;;;1.60;;
21266;SDS011;10791;53.108;18.326;2023-12-20T21:25:21;4.30;;;1.07;;
21266;SDS011;10791;53.108;18.326;2023-12-20T21:30:26;2.90;;;1.50;;
21266;SDS011;10791;53.108;18.326;2023-12-20T21:35:30;2.13;;;1.20;;
21266;SDS011;10791;53.108;18.326;2023-12-20T21:40:35;3.00;;;1.33;;
21266;SDS011;10791;53.108;18.326;2023-12-20T21:45:39;1.30;;;0.57;;
21266;SDS011;10791;53.108;18.326;2023-12-20T21:50:42;4.00;;;2.00;;
21266;SDS011;10791;53.108;18.326;2023-12-20T21:55:46;3.07;;;1.60;;
21266;SDS011;10791;53.108;18.326;2023-12-20T22:00:49;2.27;;;1.20;;
21266;SDS011;10791;53.108;18.326;2023-12-20T22:05:53;3.00;;;1.27;;
21266;SDS011;10791;53.108;18.326;2023-12-20T22:10:57;2.67;;;1.17;;
21266;SDS011;10791;53.108;18.326;2023-12-20T22:16:01;2.97;;;1.43;;
21266;SDS011;10791;53.108;18.326;2023-12-20T22:21:05;3.03;;;1.63;;
21266;SDS011;10791;53.108;18.326;2023-12-20T22:26:09;5.00;;;1.50;;
21266;SDS011;10791;53.108;18.326;2023-12-20T22:31:13;2.50;;;1.53;;
21266;SDS011;10791;53.108;18.326;2023-12-20T22:36:17;4.80;;;1.00;;
21266;SDS011;10791;53.108;18.326;2023-12-20T22:41:20;3.73;;;1.30;;
21266;SDS011;10791;53.108;18.326;2023-12-20T22:46:24;4.53;;;1.20;;
21266;SDS011;10791;53.108;18.326;2023-12-20T22:51:33;2.73;;;1.00;;
21266;SDS011;10791;53.108;18.326;2023-12-20T22:56:36;5.20;;;2.27;;
21266;SDS011;10791;53.108;18.326;2023-12-20T23:01:39;3.07;;;1.47;;
21266;SDS011;10791;53.108;18.326;2023-12-20T23:06:48;2.53;;;1.50;;
21266;SDS011;10791;53.108;18.326;2023-12-20T23:11:52;5.20;;;1.80;;
21266;SDS011;10791;53.108;18.326;2023-12-20T23:17:02;4.27;;;1.47;;
21266;SDS011;10791;53.108;18.326;2023-12-20T23:22:06;3.50;;;1.80;;
21266;SDS011;10791;53.108;18.326;2023-12-20T23:27:09;4.97;;;2.87;;
21266;SDS011;10791;53.108;18.326;2023-12-20T23:32:13;2.20;;;1.30;;
21266;SDS011;10791;53.108;18.326;2023-12-20T23:37:16;2.60;;;1.53;;
21266;SDS011;10791;53.108;18.326;2023-12-20T23:42:19;6.17;;;2.10;;
21266;SDS011;10791;53.108;18.326;2023-12-20T23:47:24;4.77;;;1.60;;
21266;SDS011;10791;53.108;18.326;2023-12-20T23:52:27;4.97;;;1.77;;
21266;SDS011;10791;53.108;18.326;2023-12-20T23:57:31;5.33;;;1.07;;
